Britney Lee — WDC2895 — position and weather

sailwx.info

Track history (hours):
 
Tides and Currents Weather Stations Pressure Air Temp Water Temp Dewpoint Dewpoint Depression Visibility Wind Speed Wind Dir Waves Ship Positions

Britney Lee

Owner: Western Rivers Boat Management, Inc., Paducah, KY. More information available from US FCC via Universal Licensing System and Coast Guard Vessel Documentation Center.

Last reported at 2016-Aug-22 05:26 UTC. Time now 2016-Aug-24 18:03 UTC.
Position N 29°60' W 090°26'.

Length 44 m; draft 3 m.

Type: Tow > 200 m length. MMSI: 367129650.

Date/timePositionNaut miles runAvg speedWind from/ knotsBaromVisibWave heightAir tempDewpointWater temp
2016-Aug-22 05:26N 29°60' W 090°26'5 5.2
2016-Aug-22 04:33N 29°56' W 090°22'  
2016-Aug-19 13:13N 31°58' W 091°11'5 6.9
2016-Aug-19 12:31N 31°60' W 091°06'6 5.9
2016-Aug-19 11:29N 32°06' W 091°06'4 4.0
2016-Aug-19 10:34N 32°07' W 091°02'7 7.0
2016-Aug-19 09:34N 32°14' W 090°59'7 7.3
2016-Aug-19 08:34N 32°20' W 090°54'6 5.9
2016-Aug-19 07:33N 32°23' W 090°60'6 6.4
2016-Aug-19 06:34N 32°27' W 091°05'7 6.9
2016-Aug-19 05:33N 32°34' W 091°06'  
Track history (hours):
 
Tides and Currents Weather Stations Pressure Air Temp Water Temp Dewpoint Dewpoint Depression Visibility Wind Speed Wind Dir Waves Ship Positions

Britney Lee

Owner: Western Rivers Boat Management, Inc., Paducah, KY. More information available from US FCC via Universal Licensing System and Coast Guard Vessel Documentation Center.

Last reported at 2016-Aug-22 05:26 UTC. Time now 2016-Aug-24 18:03 UTC.
Position N 29°60' W 090°26'.

Length 44 m; draft 3 m.

Type: Tow > 200 m length. MMSI: 367129650.

Date/timePositionNaut miles runAvg speedWind from/ knotsBaromVisibWave heightAir tempDewpointWater temp
2016-Aug-22 05:26N 29°60' W 090°26'5 5.2
2016-Aug-22 04:33N 29°56' W 090°22'  
2016-Aug-19 13:13N 31°58' W 091°11'5 6.9
2016-Aug-19 12:31N 31°60' W 091°06'6 5.9
2016-Aug-19 11:29N 32°06' W 091°06'4 4.0
2016-Aug-19 10:34N 32°07' W 091°02'7 7.0
2016-Aug-19 09:34N 32°14' W 090°59'7 7.3
2016-Aug-19 08:34N 32°20' W 090°54'6 5.9
2016-Aug-19 07:33N 32°23' W 090°60'6 6.4
2016-Aug-19 06:34N 32°27' W 091°05'7 6.9
2016-Aug-19 05:33N 32°34' W 091°06'  

Dump ship's entire track history